.
WxDataArchive / Data Records for 2006-08-09
2006-08-08 August 2006 2006-08-10

Data Records for Wednesday, 09 August 2006

Time	Temp	Chill	HIndex	Humid	Dewpt	 Wind 	HiWind	WindDir	Rain 	Barom 
-----	----	-----	------	-----	-----	------	------	-------	-----	----- 
00:00	67.1	67.1	67.1	75	58.9	0	0	---	0.00	30.104 
00:05	66.8	66.8	66.8	75	58.6	0	0	---	0.00	30.104 
00:10	66.4	66.4	66.4	75	58.2	0	0	---	0.00	30.104 
00:15	66.3	66.3	66.3	76	58.5	0	0	---	0.00	30.103 
00:20	66.0	66.0	66.0	76	58.2	0	0	---	0.00	30.103 
00:25	65.6	65.6	65.6	77	58.2	0	0	---	0.00	30.103 
00:30	65.5	65.5	65.5	77	58.1	0	0	---	0.00	30.106 
00:35	65.2	65.2	65.2	78	58.2	0	0	---	0.00	30.106 
00:40	65.0	65.0	65.0	78	58.0	0	0	---	0.00	30.106 
00:45	64.8	64.8	64.8	79	58.1	0	0	---	0.00	30.110 
00:50	64.5	64.5	64.5	80	58.2	0	1	68	0.00	30.110 
00:55	64.3	64.3	64.3	80	58.0	0	0	---	0.00	30.110 
01:00	64.2	64.2	64.2	80	57.9	0	0	---	0.00	30.116 
01:05	64.0	64.0	64.0	81	58.0	0	0	---	0.00	30.116 
01:10	63.9	63.9	63.9	81	57.9	0	0	---	0.00	30.116 
01:15	63.5	63.5	63.5	81	57.6	0	0	---	0.00	30.115 
01:20	63.4	63.4	63.4	82	57.8	0	0	---	0.00	30.115 
01:25	63.4	63.4	63.4	82	57.8	0	0	---	0.00	30.115 
01:30	63.2	63.2	63.2	82	57.6	0	0	---	0.00	30.112 
01:35	63.1	63.1	63.1	82	57.5	0	0	---	0.00	30.112 
01:40	62.9	62.9	62.9	83	57.7	0	0	---	0.00	30.112 
01:45	63.1	63.1	63.1	82	57.5	0	1	68	0.00	30.110 
01:50	63.4	63.4	63.4	81	57.5	0	1	68	0.00	30.110 
01:55	63.7	63.7	63.7	80	57.4	0	2	68	0.00	30.110 
02:00	63.9	63.9	63.9	80	57.6	0	2	68	0.00	30.103 
02:05	64.0	64.0	64.0	80	57.7	1	2	68	0.00	30.103 
02:10	64.0	64.0	64.0	79	57.4	0	2	68	0.00	30.103 
02:15	64.0	64.0	64.0	80	57.7	0	2	68	0.00	30.102 
02:20	63.9	63.9	63.9	80	57.6	0	1	68	0.00	30.102 
02:25	63.7	63.7	63.7	81	57.8	0	1	68	0.00	30.102 
02:30	63.4	63.4	63.4	81	57.5	0	1	68	0.00	30.104 
02:35	63.1	63.1	63.1	81	57.2	0	0	---	0.00	30.104 
02:40	62.7	62.7	62.7	82	57.1	0	0	---	0.00	30.104 
02:45	62.4	62.4	62.4	83	57.2	0	0	---	0.00	30.104 
02:50	62.3	62.3	62.3	83	57.1	0	0	---	0.00	30.104 
02:55	62.1	62.1	62.1	84	57.2	0	1	68	0.00	30.104 
03:00	62.0	62.0	62.0	84	57.1	0	0	---	0.00	30.109 
03:05	61.8	61.8	61.8	84	56.9	0	0	---	0.00	30.109 
03:10	61.8	61.8	61.8	85	57.2	0	1	68	0.00	30.109 
03:15	62.0	62.0	62.0	84	57.1	0	2	68	0.00	30.109 
03:20	62.1	62.1	62.1	84	57.2	0	1	68	0.00	30.109 
03:25	62.1	62.1	62.1	84	57.2	0	0	---	0.00	30.109 
03:30	62.3	62.3	62.3	84	57.4	0	1	68	0.00	30.105 
03:35	62.4	62.4	62.4	84	57.5	0	1	68	0.00	30.105 
03:40	62.6	62.6	62.6	83	57.4	0	1	68	0.00	30.105 
03:45	62.7	62.7	62.7	83	57.5	0	1	68	0.00	30.104 
03:50	62.9	62.9	62.9	83	57.7	0	1	68	0.00	30.104 
03:55	63.1	63.1	63.1	82	57.5	0	2	68	0.00	30.104 
04:00	63.2	63.2	63.2	82	57.6	0	1	68	0.00	30.106 
04:05	63.4	63.4	63.4	82	57.8	0	1	68	0.00	30.106 
04:10	63.5	63.5	63.5	81	57.6	0	1	68	0.00	30.106 
04:15	63.5	63.5	63.5	81	57.6	0	1	68	0.00	30.104 
04:20	63.7	63.7	63.7	81	57.8	0	2	68	0.00	30.104 
04:25	63.7	63.7	63.7	81	57.8	0	1	68	0.00	30.104 
04:30	63.7	63.7	63.7	81	57.8	0	1	68	0.00	30.102 
04:35	63.5	63.5	63.5	81	57.6	0	1	68	0.00	30.102 
04:40	63.5	63.5	63.5	82	57.9	0	1	68	0.00	30.102 
04:45	63.4	63.4	63.4	82	57.8	0	2	68	0.00	30.098 
04:50	63.1	63.1	63.1	82	57.5	0	2	68	0.00	30.098 
04:55	62.9	62.9	62.9	83	57.7	0	1	68	0.00	30.098 
05:00	62.7	62.7	62.7	83	57.5	0	1	68	0.00	30.097 
05:05	62.4	62.4	62.4	84	57.5	0	2	68	0.00	30.097 
05:10	62.3	62.3	62.3	84	57.4	0	2	68	0.00	30.097 
05:15	62.0	62.0	62.0	85	57.4	1	2	68	0.00	30.098 
05:20	61.8	61.8	61.8	85	57.2	0	1	68	0.00	30.098 
05:25	61.5	61.5	61.5	86	57.3	0	1	68	0.00	30.098 
05:30	61.3	61.3	61.3	86	57.1	0	1	68	0.00	30.089 
05:35	61.2	61.2	61.2	87	57.3	0	1	68	0.00	30.089 
05:40	61.0	61.0	61.0	87	57.1	0	1	68	0.00	30.089 
05:45	60.9	60.9	60.9	87	57.0	0	1	68	0.00	30.089 
05:50	60.7	60.7	60.7	88	57.1	0	1	68	0.00	30.089 
05:55	60.7	60.7	60.7	88	57.1	0	1	68	0.00	30.089 
06:00	60.7	60.7	60.7	88	57.1	0	1	68	0.00	30.087 
06:05	60.7	60.7	60.7	88	57.1	1	2	68	0.00	30.087 
06:10	60.7	60.7	60.7	88	57.1	1	2	68	0.00	30.087 
06:15	60.7	60.7	60.7	88	57.1	0	1	68	0.00	30.087 
06:20	60.5	60.5	60.5	88	56.9	0	1	68	0.00	30.087 
06:25	60.5	60.5	60.5	88	56.9	0	1	68	0.00	30.087 
06:30	60.4	60.4	60.4	88	56.8	0	2	68	0.00	30.083 
06:35	60.2	60.2	60.2	88	56.6	0	1	68	0.00	30.083 
06:40	60.2	60.2	60.2	89	56.9	0	1	68	0.00	30.083 
06:45	60.2	60.2	60.2	89	56.9	0	2	68	0.00	30.086 
06:50	60.4	60.4	60.4	89	57.1	0	1	68	0.00	30.086 
06:55	60.4	60.4	60.4	89	57.1	0	1	68	0.00	30.086 
07:00	60.4	60.4	60.4	89	57.1	0	2	68	0.00	30.087 
07:05	60.5	60.5	60.5	89	57.2	0	1	68	0.00	30.087 
07:10	60.7	60.7	60.7	86	56.5	1	3	112	0.00	30.087 
07:15	60.7	60.7	60.7	88	57.1	1	3	112	0.00	30.088 
07:20	60.9	60.9	60.9	88	57.3	1	2	112	0.00	30.088 
07:25	61.0	61.0	61.0	88	57.4	0	2	112	0.00	30.088 
07:30	61.0	61.0	61.0	88	57.4	0	2	112	0.00	30.091 
07:35	61.2	61.2	61.2	87	57.3	0	1	112	0.00	30.091 
07:40	61.2	61.2	61.2	87	57.3	0	1	112	0.00	30.091 
07:45	61.3	61.3	61.3	87	57.4	0	1	112	0.00	30.092 
07:50	61.6	61.6	61.6	86	57.4	0	2	112	0.00	30.092 
07:55	61.8	61.8	61.8	86	57.6	0	2	112	0.00	30.092 
08:00	62.3	62.3	62.3	85	57.7	0	1	112	0.00	30.091 
08:05	62.6	62.6	62.6	85	58.0	0	1	112	0.00	30.091 
08:10	62.7	62.7	62.7	84	57.8	0	2	112	0.00	30.091 
08:15	62.9	62.9	62.9	84	58.0	0	2	112	0.00	30.092 
08:20	63.1	63.1	63.1	84	58.2	0	1	112	0.00	30.092 
08:25	63.1	63.1	63.1	83	57.8	1	3	90	0.00	30.092 
08:30	63.4	63.4	63.4	83	58.1	0	1	90	0.00	30.095 
08:35	63.4	63.4	63.4	82	57.8	1	3	90	0.00	30.095 
08:40	63.9	63.9	63.9	82	58.3	0	2	90	0.00	30.095 
08:45	64.3	64.3	64.3	80	58.0	0	2	90	0.00	30.094 
08:50	65.2	65.2	65.2	80	58.9	1	3	90	0.00	30.094 
08:55	66.0	66.0	66.0	78	58.9	2	4	68	0.00	30.094 
09:00	66.9	66.9	66.9	75	58.7	1	4	90	0.00	30.087 
09:05	67.6	67.6	67.6	74	59.0	2	3	90	0.00	30.087 
09:10	67.9	67.9	67.9	74	59.3	2	4	68	0.00	30.087 
09:15	68.8	68.8	68.8	71	59.0	2	5	68	0.00	30.076 
09:20	68.9	68.9	68.9	69	58.3	3	6	90	0.00	30.076 
09:25	69.6	69.6	69.6	71	59.8	1	4	68	0.00	30.076 
09:30	70.3	70.3	70.3	69	59.6	2	5	90	0.00	30.072 
09:35	70.4	70.4	70.4	67	58.9	2	4	112	0.00	30.072 
09:40	70.8	70.8	70.8	67	59.3	2	4	68	0.00	30.072 
09:45	71.1	71.1	71.1	67	59.6	2	5	90	0.00	30.071 
09:50	70.9	70.9	70.9	67	59.4	2	4	90	0.00	30.071 
09:55	70.9	70.9	70.9	69	60.2	2	3	90	0.00	30.071 
10:00	70.9	70.9	70.9	68	59.8	3	6	90	0.00	30.063 
10:05	70.9	70.9	70.9	67	59.4	2	4	90	0.00	30.063 
10:10	70.9	70.9	70.9	69	60.2	1	3	90	0.00	30.063 
10:15	70.9	70.9	70.9	69	60.2	2	4	112	0.00	30.069 
10:20	71.1	71.1	71.1	67	59.6	3	4	90	0.00	30.069 
10:25	71.3	71.3	71.3	68	60.2	2	5	90	0.00	30.069 
10:30	71.8	71.8	71.8	66	59.8	2	5	90	0.00	30.065 
10:35	72.3	72.3	72.3	65	59.9	1	4	90	0.00	30.065 
10:40	72.8	72.8	72.8	64	59.9	2	4	90	0.00	30.065 
10:45	73.2	73.2	73.2	64	60.3	1	3	112	0.00	30.070 
10:50	73.7	73.7	73.7	63	60.3	2	4	90	0.00	30.070 
10:55	74.0	74.0	74.0	62	60.1	2	4	112	0.00	30.070 
11:00	75.1	75.1	77.4	61	60.7	3	6	90	0.00	30.069 
11:05	75.4	75.4	77.6	60	60.5	3	6	90	0.00	30.069 
11:10	75.3	75.3	77.6	58	59.5	2	6	90	0.00	30.069 
11:15	75.3	75.3	77.5	61	60.9	2	5	90	0.00	30.071 
11:20	75.4	75.4	77.6	60	60.5	2	5	90	0.00	30.071 
11:25	75.8	75.8	77.9	57	59.5	2	4	90	0.00	30.071 
11:30	76.3	76.3	78.3	57	59.9	2	5	112	0.00	30.068 
11:35	76.5	76.5	78.4	55	59.1	2	5	90	0.00	30.068 
11:40	76.3	76.3	78.3	54	58.4	2	5	112	0.00	30.068 
11:45	76.1	76.1	78.1	54	58.2	2	5	90	0.00	30.056 
11:50	76.5	76.5	78.4	56	59.6	2	6	90	0.00	30.056 
11:55	77.2	77.2	78.8	54	59.2	3	6	90	0.00	30.056 
12:00	77.9	77.9	79.2	50	57.7	3	6	90	0.00	30.052 
12:05	78.1	78.1	79.3	50	57.9	2	5	90	0.00	30.052 
12:10	78.5	78.5	79.5	49	57.7	2	5	90	0.00	30.052 
12:15	78.6	78.6	79.6	49	57.8	2	4	90	0.00	30.051 
12:20	78.6	78.6	79.7	51	58.9	2	5	90	0.00	30.051 
12:25	78.5	78.5	79.6	51	58.8	2	4	90	0.00	30.051 
12:30	78.6	78.6	79.7	51	58.9	3	7	90	0.00	30.041 
12:35	79.2	79.2	79.9	47	57.2	2	4	90	0.00	30.041 
12:40	79.6	79.6	80.2	47	57.6	2	4	90	0.00	30.041 
12:45	79.4	79.4	80.0	46	56.8	3	5	90	0.00	30.038 
12:50	79.2	79.2	80.0	48	57.8	2	4	112	0.00	30.038 
12:55	79.2	79.2	80.0	48	57.8	1	4	112	0.00	30.038 
13:00	79.8	79.8	80.3	46	57.2	2	5	90	0.00	30.034 
13:05	80.3	80.3	81.0	49	59.4	2	4	112	0.00	30.034 
13:10	79.9	79.9	80.4	47	57.8	3	6	90	0.00	30.034 
13:15	79.4	79.4	80.2	49	58.5	2	4	90	0.00	30.026 
13:20	79.0	79.0	80.1	52	59.8	1	4	112	0.00	30.026 
13:25	78.8	78.8	79.9	52	59.7	2	5	90	0.00	30.026 
13:30	78.8	78.8	79.9	51	59.1	1	5	90	0.00	30.022 
13:35	79.4	79.4	80.3	50	59.1	1	3	135	0.00	30.022 
13:40	79.8	79.8	80.6	50	59.5	2	6	248	0.00	30.022 
13:45	79.6	79.6	80.5	51	59.9	2	6	90	0.00	30.015 
13:50	79.9	79.9	80.6	49	59.0	2	5	90	0.00	30.015 
13:55	80.3	80.3	81.2	51	60.5	2	6	90	0.00	30.015 
14:00	80.5	80.5	81.3	50	60.1	3	5	112	0.00	30.006 
14:05	80.3	80.3	81.4	53	61.6	2	5	90	0.00	30.006 
14:10	80.3	80.3	81.3	52	61.0	2	4	90	0.00	30.006 
14:15	80.1	80.1	81.1	52	60.9	2	4	68	0.00	30.007 
14:20	79.8	79.8	80.7	51	60.0	2	4	68	0.00	30.007 
14:25	79.8	79.8	80.8	52	60.6	2	4	112	0.00	30.007 
14:30	79.6	79.6	80.7	53	60.9	1	3	90	0.00	30.005 
14:35	79.4	79.4	80.7	55	61.8	1	4	112	0.00	30.005 
14:40	79.2	79.2	80.5	55	61.6	1	4	90	0.00	30.005 
14:45	79.2	79.2	80.5	55	61.6	1	4	90	0.00	30.004 
14:50	79.4	79.4	80.7	55	61.8	2	4	90	0.00	30.004 
14:55	79.4	79.4	80.9	57	62.8	1	4	68	0.00	30.004 
15:00	79.6	79.6	80.8	54	61.5	2	6	90	0.00	29.993 
15:05	79.4	79.4	80.6	54	61.3	2	4	90	0.00	29.993 
15:10	79.6	79.6	80.8	54	61.5	1	4	90	0.00	29.993 
15:15	79.6	79.6	80.9	55	62.0	1	4	90	0.00	29.992 
15:20	79.6	79.6	80.8	54	61.5	1	4	90	0.00	29.992 
15:25	79.6	79.6	81.0	56	62.5	1	4	90	0.00	29.992 
15:30	79.4	79.4	80.9	57	62.8	1	4	90	0.00	29.991 
15:35	79.4	79.4	80.8	56	62.3	1	2	90	0.00	29.991 
15:40	79.4	79.4	80.8	56	62.3	1	2	135	0.00	29.991 
15:45	79.6	79.6	80.9	55	62.0	1	4	90	0.00	29.986 
15:50	79.8	79.8	81.2	56	62.7	1	3	90	0.00	29.986 
15:55	79.6	79.6	80.9	55	62.0	1	3	90	0.00	29.986 
16:00	79.4	79.4	80.9	57	62.8	1	2	112	0.00	29.979 
16:05	79.4	79.4	80.8	56	62.3	1	2	112	0.00	29.979 
16:10	79.4	79.4	80.8	56	62.3	0	2	180	0.00	29.979 
16:15	79.0	79.0	80.5	57	62.4	1	3	112	0.00	29.972 
16:20	78.8	78.8	80.3	58	62.8	1	4	90	0.00	29.972 
16:25	78.8	78.8	80.1	55	61.2	1	3	135	0.00	29.972 
16:30	78.6	78.6	79.9	54	60.5	1	4	135	0.00	29.960 
16:35	78.6	78.6	79.9	54	60.5	1	2	112	0.00	29.960 
16:40	78.6	78.6	79.9	54	60.5	1	5	112	0.00	29.960 
16:45	78.8	78.8	80.1	54	60.7	0	2	90	0.00	29.959 
16:50	78.8	78.8	80.1	55	61.2	0	1	90	0.00	29.959 
16:55	78.8	78.8	80.2	56	61.8	1	3	90	0.00	29.959 
17:00	79.0	79.0	80.5	58	62.9	0	3	90	0.00	29.952 
17:05	79.0	79.0	80.5	57	62.4	1	3	90	0.00	29.952 
17:10	79.0	79.0	80.5	57	62.4	1	2	90	0.00	29.952 
17:15	79.0	79.0	80.4	56	61.9	1	2	158	0.00	29.948 
17:20	79.0	79.0	80.5	57	62.4	1	2	158	0.00	29.948 
17:25	78.6	78.6	80.1	57	62.1	1	3	112	0.00	29.948 
17:30	78.5	78.5	80.0	57	62.0	1	3	90	0.00	29.945 
17:35	78.3	78.3	79.9	58	62.3	1	2	112	0.00	29.945 
17:40	78.3	78.3	79.9	58	62.3	1	2	112	0.00	29.945 
17:45	78.3	78.3	79.9	59	62.8	0	2	112	0.00	29.946 
17:50	78.1	78.1	79.7	59	62.6	1	2	112	0.00	29.946 
17:55	78.1	78.1	79.7	59	62.6	1	2	112	0.00	29.946 
18:00	78.1	78.1	79.7	59	62.6	0	2	90	0.00	29.943 
18:05	78.1	78.1	79.8	60	63.1	1	2	90	0.00	29.943 
18:10	77.9	77.9	79.6	61	63.3	1	2	90	0.00	29.943 
18:15	77.9	77.9	79.6	61	63.3	0	1	90	0.00	29.941 
18:20	77.9	77.9	79.6	60	62.9	1	2	90	0.00	29.941 
18:25	77.9	77.9	79.6	61	63.3	0	1	90	0.00	29.941 
18:30	78.1	78.1	79.8	61	63.5	0	3	112	0.00	29.935 
18:35	78.3	78.3	80.0	60	63.2	1	3	112	0.00	29.935 
18:40	78.5	78.5	80.1	59	63.0	1	2	202	0.00	29.935 
18:45	78.5	78.5	80.2	61	63.9	1	2	112	0.00	29.926 
18:50	78.5	78.5	80.2	60	63.4	1	3	112	0.00	29.926 
18:55	78.5	78.5	80.2	61	63.9	0	2	112	0.00	29.926 
19:00	78.3	78.3	80.0	61	63.7	1	3	90	0.00	29.921 
19:05	78.1	78.1	79.9	62	64.0	1	3	90	0.00	29.921 
19:10	77.9	77.9	79.6	62	63.8	1	3	90	0.00	29.921 
19:15	77.7	77.7	79.4	62	63.6	1	3	90	0.00	29.915 
19:20	77.7	77.7	79.4	62	63.6	0	2	90	0.00	29.915 
19:25	77.6	77.6	79.4	63	64.0	0	2	90	0.00	29.915 
19:30	77.6	77.6	79.4	62	63.5	1	2	90	0.00	29.913 
19:35	77.4	77.4	79.2	63	63.8	0	2	90	0.00	29.913 
19:40	77.4	77.4	79.2	63	63.8	0	2	90	0.00	29.913 
19:45	77.2	77.2	79.0	64	64.1	0	1	90	0.00	29.916 
19:50	77.2	77.2	79.0	62	63.2	0	1	112	0.00	29.916 
19:55	77.0	77.0	78.8	63	63.4	0	1	112	0.00	29.916 
20:00	77.0	77.0	78.8	64	63.9	0	1	112	0.00	29.915 
20:05	76.8	76.8	78.6	63	63.2	0	1	112	0.00	29.915 
20:10	76.7	76.7	78.5	64	63.6	0	1	112	0.00	29.915 
20:15	76.7	76.7	78.5	64	63.6	0	1	112	0.00	29.909 
20:20	76.5	76.5	78.3	65	63.8	0	0	---	0.00	29.909 
20:25	76.5	76.5	78.3	65	63.8	0	1	112	0.00	29.909 
20:30	76.3	76.3	78.1	65	63.6	0	1	112	0.00	29.907 
20:35	76.3	76.3	78.1	65	63.6	0	1	112	0.00	29.907 
20:40	76.1	76.1	77.9	66	63.9	0	1	112	0.00	29.907 
20:45	76.0	76.0	77.9	65	63.4	0	0	---	0.00	29.902 
20:50	76.0	76.0	77.8	66	63.8	0	0	---	0.00	29.902 
20:55	75.8	75.8	77.7	66	63.6	0	0	---	0.00	29.902 
21:00	75.8	75.8	77.6	67	64.0	0	1	112	0.00	29.903 
21:05	75.6	75.6	77.4	67	63.9	0	0	---	0.00	29.903 
21:10	75.6	75.6	77.4	67	63.9	0	0	---	0.00	29.903 
21:15	75.6	75.6	77.4	67	63.9	0	1	112	0.00	29.900 
21:20	75.4	75.4	77.3	67	63.7	0	1	112	0.00	29.900 
21:25	75.6	75.6	77.4	68	64.3	0	0	---	0.00	29.900 
21:30	75.4	75.4	77.2	68	64.1	0	1	112	0.00	29.894 
21:35	75.4	75.4	77.2	68	64.1	0	1	112	0.00	29.894 
21:40	75.4	75.4	77.2	68	64.1	0	0	---	0.00	29.894 
21:45	75.3	75.3	77.1	68	64.0	0	0	---	0.00	29.904 
21:50	75.1	75.1	76.9	69	64.2	0	0	---	0.00	29.904 
21:55	75.1	75.1	76.9	69	64.2	0	0	---	0.00	29.904 
22:00	74.9	74.9	74.9	69	64.0	0	0	---	0.00	29.903 
22:05	74.7	74.7	74.7	69	63.8	0	0	---	0.00	29.903 
22:10	74.6	74.6	74.6	70	64.2	0	0	---	0.00	29.903 
22:15	74.6	74.6	74.6	70	64.2	0	0	---	0.00	29.896 
22:20	74.4	74.4	74.4	71	64.4	0	0	---	0.00	29.896 
22:25	74.2	74.2	74.2	72	64.6	0	0	---	0.00	29.896 
22:30	74.0	74.0	74.0	72	64.4	0	0	---	0.00	29.903 
22:35	74.0	74.0	74.0	73	64.8	0	0	---	0.00	29.903 
22:40	73.9	73.9	73.9	73	64.7	0	0	---	0.00	29.903 
22:45	73.9	73.9	73.9	73	64.7	0	0	---	0.00	29.901 
22:50	73.7	73.7	73.7	73	64.5	0	0	---	0.00	29.901 
22:55	73.5	73.5	73.5	74	64.7	0	0	---	0.00	29.901 
23:00	73.3	73.3	73.3	75	64.9	0	0	---	0.00	29.897 
23:05	73.2	73.2	73.2	75	64.8	0	0	---	0.00	29.897 
23:10	73.0	73.0	73.0	75	64.6	0	0	---	0.00	29.897 
23:15	72.8	72.8	72.8	76	64.8	0	0	---	0.00	29.891 
23:20	72.5	72.5	72.5	77	64.9	0	0	---	0.00	29.891 
23:25	72.3	72.3	72.3	77	64.7	0	0	---	0.00	29.891 
23:30	72.1	72.1	72.1	77	64.5	0	0	---	0.00	29.891 
23:35	72.0	72.0	72.0	77	64.4	0	0	---	0.00	29.891 
23:40	71.8	71.8	71.8	78	64.6	0	0	---	0.00	29.891 
23:45	71.6	71.6	71.6	79	64.7	0	0	---	0.00	29.891 
23:50	71.5	71.5	71.5	79	64.6	0	0	---	0.00	29.891 
23:55	71.1	71.1	71.1	79	64.2	0	0	---	0.00	29.891 

CoCoRaHS
IN-AL-39
A2 Web Hosting
Creative Commons License
GoDaddy
Look for:

loaded 2017-10-18 21:53:12 • last modified 2010-11-18 10:43:29
Privacy PolicyDisclaimer
• wx.awcolley.com is powered by PmWiki v.2002016 •
• all content (unless otherwise noted) © 2017 A W Colley